Time;durP1;ratioP1;P1;durP2;ratioP2;P2;SDS_P1;SDS_P2;PMS_P1;PMS_P2;Temp;Humidity;BMP_temperature;BMP_pressure;BME280_temperature;BME280_humidity;BME280_pressure;Samples;Min_cycle;Max_cycle;Signal;HPM_P1;HPM_P2
2024/01/21 00:03:06;;;;;;;;;;;;;;;16.27;37.63;100584.25;10326079;28;853;-75
2024/01/21 00:08:02;;;;;;;;;;;;;;;16.29;37.64;100569.25;10326685;28;920;-75
2024/01/21 00:12:58;;;;;;;;;;;;;;;16.28;37.52;100559.66;10325426;28;1906;-74
2024/01/21 00:17:54;;;;;;;;;;;;;;;16.26;37.45;100545.66;10325895;28;857;-74
2024/01/21 00:22:50;;;;;;;;;;;;;;;16.26;37.62;100552.69;10325725;28;770;-74
2024/01/21 00:27:46;;;;;;;;;;;;;;;16.26;37.33;100553.56;10325356;28;1121;-75
2024/01/21 00:32:41;;;;;;;;;;;;;;;16.25;37.54;100549.22;10325505;28;1972;-75
2024/01/21 00:37:38;;;;;;;;;;;;;;;16.25;37.47;100543.94;10325508;28;963;-75
2024/01/21 00:42:34;;;;;;;;;;;;;;;16.24;37.50;100522.94;10325818;28;874;-75
2024/01/21 00:47:30;;;;;;;;;;;;;;;16.23;37.61;100508.06;10325223;28;930;-74
2024/01/21 00:52:26;;;;;;;;;;;;;;;16.22;37.40;100491.41;10326159;28;1943;-74
2024/01/21 00:57:22;;;;;;;;;;;;;;;16.23;37.55;100481.75;10325522;28;834;-76
2024/01/21 01:02:18;;;;;;;;;;;;;;;16.21;37.57;100469.50;10324759;28;803;-74
2024/01/21 01:07:13;;;;;;;;;;;;;;;16.21;37.56;100466.00;10324855;28;950;-74
2024/01/21 01:12:09;;;;;;;;;;;;;;;16.20;37.66;100473.03;10325228;28;1891;-75
2024/01/21 01:17:06;;;;;;;;;;;;;;;16.20;37.50;100462.50;10325988;28;863;-75
2024/01/21 01:22:02;;;;;;;;;;;;;;;16.22;37.48;100457.22;10324459;28;890;-75
2024/01/21 01:26:58;;;;;;;;;;;;;;;16.21;37.52;100437.94;10324418;28;1376;-75
2024/01/21 01:31:54;;;;;;;;;;;;;;;16.22;37.46;100428.28;10324714;28;1918;-74
2024/01/21 01:36:50;;;;;;;;;;;;;;;16.19;37.63;100426.59;10324760;28;765;-75
2024/01/21 01:41:45;;;;;;;;;;;;;;;16.18;37.69;100406.44;10331637;28;865;-74
2024/01/21 01:46:41;;;;;;;;;;;;;;;16.18;37.71;100395.94;10332211;28;849;-75
2024/01/21 01:51:37;;;;;;;;;;;;;;;16.18;37.38;100395.06;10331791;28;1906;-74
2024/01/21 01:56:33;;;;;;;;;;;;;;;16.19;37.56;100399.41;10331083;28;846;-75
2024/01/21 02:01:29;;;;;;;;;;;;;;;16.18;37.44;100372.25;10331903;28;837;-74
2024/01/21 02:06:25;;;;;;;;;;;;;;;16.16;37.59;100384.56;10331310;28;952;-74
2024/01/21 02:11:21;;;;;;;;;;;;;;;16.17;37.67;100367.91;10331538;28;1956;-75
2024/01/21 02:16:17;;;;;;;;;;;;;;;16.17;37.51;100369.69;10331020;28;939;-75
2024/01/21 02:21:12;;;;;;;;;;;;;;;16.17;37.32;100348.66;10330844;28;834;-74
2024/01/21 02:26:08;;;;;;;;;;;;;;;16.17;37.35;100340.75;10329831;28;1324;-74
2024/01/21 02:31:04;;;;;;;;;;;;;;;16.16;37.53;100346.91;10330485;28;870;-74
2024/01/21 02:36:00;;;;;;;;;;;;;;;16.15;37.43;100339.94;10330122;28;1963;-74
2024/01/21 02:40:56;;;;;;;;;;;;;;;16.17;37.37;100332.88;10329497;28;865;-74
2024/01/21 02:45:52;;;;;;;;;;;;;;;16.15;37.48;100321.50;10329299;28;945;-74
2024/01/21 02:50:48;;;;;;;;;;;;;;;16.15;37.39;100316.25;10328638;28;821;-75
2024/01/21 02:55:44;;;;;;;;;;;;;;;16.15;37.45;100308.38;10328801;28;1945;-74
2024/01/21 03:00:40;;;;;;;;;;;;;;;16.13;37.56;100297.88;10329255;28;850;-74
2024/01/21 03:05:35;;;;;;;;;;;;;;;16.12;37.29;100295.31;10328443;28;861;-75
2024/01/21 03:10:31;;;;;;;;;;;;;;;16.11;37.34;100289.19;10329477;28;941;-74
2024/01/21 03:15:27;;;;;;;;;;;;;;;16.09;37.26;100277.00;10328655;28;1953;-75
2024/01/21 03:20:23;;;;;;;;;;;;;;;16.07;37.42;100268.28;10327394;28;920;-75
2024/01/21 03:25:19;;;;;;;;;;;;;;;16.04;37.29;100265.72;10327473;28;1077;-74
2024/01/21 03:30:15;;;;;;;;;;;;;;;16.02;37.45;100262.28;10328056;28;827;-75
2024/01/21 03:35:11;;;;;;;;;;;;;;;15.98;37.39;100249.22;10327915;28;1910;-74
2024/01/21 03:40:06;;;;;;;;;;;;;;;15.95;37.51;100240.53;10327665;28;773;-74
2024/01/21 03:45:02;;;;;;;;;;;;;;;15.92;37.59;100232.75;10326868;28;859;-74
2024/01/21 03:49:58;;;;;;;;;;;;;;;15.91;37.36;100231.88;10327283;28;820;-74
2024/01/21 03:54:54;;;;;;;;;;;;;;;15.91;37.44;100228.41;10326605;28;1961;-74
2024/01/21 03:59:50;;;;;;;;;;;;;;;15.90;37.35;100232.81;10325693;28;887;-75
2024/01/21 04:04:46;;;;;;;;;;;;;;;15.88;37.51;100213.56;10326396;28;866;-75
2024/01/21 04:09:42;;;;;;;;;;;;;;;15.89;37.45;100219.69;10325552;28;888;-75
2024/01/21 04:14:38;;;;;;;;;;;;;;;15.90;37.30;100211.78;10326510;28;1906;-75
2024/01/21 04:19:34;;;;;;;;;;;;;;;15.91;37.36;100199.47;10325276;28;850;-75
2024/01/21 04:24:30;;;;;;;;;;;;;;;15.91;37.36;100200.34;10326730;28;993;-75
2024/01/21 04:29:26;;;;;;;;;;;;;;;15.94;37.23;100196.75;10326645;28;1389;-74
2024/01/21 04:34:21;;;;;;;;;;;;;;;15.96;37.26;100205.47;10325648;28;1969;-75
2024/01/21 04:39:21;;;;;;;;;;;;;;;15.96;37.34;100172.16;10324809;28;893;-74
2024/01/21 04:44:17;;;;;;;;;;;;;;;15.97;37.26;100152.81;10325979;28;875;-74
2024/01/21 04:49:13;;;;;;;;;;;;;;;15.99;37.44;100126.50;10325735;28;930;-75
2024/01/21 04:54:09;;;;;;;;;;;;;;;16.02;37.43;100138.69;10325701;28;1899;-75
2024/01/21 04:59:05;;;;;;;;;;;;;;;16.04;37.37;100144.78;10325729;28;864;-75
2024/01/21 05:04:01;;;;;;;;;;;;;;;16.03;37.37;100143.03;10325248;28;856;-74
2024/01/21 05:08:57;;;;;;;;;;;;;;;16.05;37.29;100126.31;10325429;28;939;-75
2024/01/21 05:13:53;;;;;;;;;;;;;;;16.06;37.21;100116.66;10329660;28;1961;-74
2024/01/21 05:18:48;;;;;;;;;;;;;;;16.07;37.27;100110.50;10332618;28;924;-74
2024/01/21 05:23:44;;;;;;;;;;;;;;;16.07;37.18;100094.72;10333001;28;818;-74
2024/01/21 05:28:40;;;;;;;;;;;;;;;16.10;37.35;100094.63;10332079;28;1247;-75
2024/01/21 05:33:38;;;;;;;;;;;;;;;16.10;37.19;100094.63;10332361;28;1918;-74
2024/01/21 05:38:33;;;;;;;;;;;;;;;16.12;37.31;100077.91;10331859;28;810;-74
2024/01/21 05:43:29;;;;;;;;;;;;;;;16.11;37.11;100067.41;10332592;28;814;-74
2024/01/21 05:48:25;;;;;;;;;;;;;;;16.13;37.27;100071.72;10332123;28;806;-74
2024/01/21 05:53:21;;;;;;;;;;;;;;;16.13;37.18;100063.81;10331883;28;1981;-74
2024/01/21 05:58:17;;;;;;;;;;;;;;;16.14;37.25;100059.44;10331700;28;1552;-74
2024/01/21 06:03:13;;;;;;;;;;;;;;;16.15;37.36;100061.16;10330879;28;798;-74
2024/01/21 06:08:10;;;;;;;;;;;;;;;16.15;37.16;100063.78;10330105;28;913;-75
2024/01/21 06:13:06;;;;;;;;;;;;;;;16.16;37.36;100065.50;10330483;28;1888;-74
2024/01/21 06:18:01;;;;;;;;;;;;;;;16.18;37.22;100072.44;10330597;28;905;-76
2024/01/21 06:22:57;;;;;;;;;;;;;;;16.18;37.22;100090.00;10330076;28;766;-78
2024/01/21 06:27:53;;;;;;;;;;;;;;;16.16;37.24;100081.28;10330496;28;1418;-76
2024/01/21 06:32:49;;;;;;;;;;;;;;;16.17;37.25;100078.59;10330393;28;1910;-75
2024/01/21 06:37:45;;;;;;;;;;;;;;;16.19;37.01;100075.91;10330170;28;850;-75
2024/01/21 06:42:41;;;;;;;;;;;;;;;16.20;37.02;100061.88;10330052;28;917;-75
2024/01/21 06:47:37;;;;;;;;;;;;;;;16.20;37.06;100065.34;10329225;28;794;-81
2024/01/21 06:52:33;;;;;;;;;;;;;;;16.20;37.07;100046.09;10328997;28;1949;-75
2024/01/21 06:57:29;;;;;;;;;;;;;;;16.31;36.49;100043.97;10329519;28;1009;-71
2024/01/21 07:02:25;;;;;;;;;;;;;;;16.33;36.60;100026.38;10328089;28;901;-72
2024/01/21 07:07:21;;;;;;;;;;;;;;;16.35;36.60;100028.97;10328489;28;850;-71
2024/01/21 07:12:17;;;;;;;;;;;;;;;16.37;36.40;100049.06;10328141;28;1885;-71
2024/01/21 07:17:13;;;;;;;;;;;;;;;16.34;36.51;100054.38;10328041;28;795;-71
2024/01/21 07:22:08;;;;;;;;;;;;;;;16.38;36.19;100050.75;10328459;28;881;-71
2024/01/21 07:27:04;;;;;;;;;;;;;;;16.40;36.32;100030.53;10328034;28;1093;-71
2024/01/21 07:32:00;;;;;;;;;;;;;;;16.43;36.09;100021.69;10327391;28;1906;-71
2024/01/21 07:36:56;;;;;;;;;;;;;;;16.46;35.71;100076.81;10327334;28;942;-71
2024/01/21 07:41:52;;;;;;;;;;;;;;;16.47;35.82;100118.00;10327181;28;862;-71
2024/01/21 07:46:48;;;;;;;;;;;;;;;16.48;35.06;100103.06;10327515;28;890;-68
2024/01/21 07:51:46;;;;;;;;;;;;;;;16.44;35.63;100110.22;10326665;28;2012;-72
2024/01/21 07:56:42;;;;;;;;;;;;;;;16.50;35.34;100109.16;10326560;28;861;-72
2024/01/21 08:01:37;;;;;;;;;;;;;;;16.52;35.41;100137.13;10325742;28;893;-71
2024/01/21 08:06:33;;;;;;;;;;;;;;;16.54;36.28;100153.75;10327447;28;865;-71
2024/01/21 08:11:29;;;;;;;;;;;;;;;16.53;37.12;100138.88;10326636;28;1954;-71
2024/01/21 08:16:25;;;;;;;;;;;;;;;16.62;37.57;100140.34;10326626;28;866;-71
2024/01/21 08:21:21;;;;;;;;;;;;;;;16.61;37.76;100135.97;10325853;28;771;-71
2024/01/21 08:26:17;;;;;;;;;;;;;;;16.60;37.58;100134.25;10325552;28;1511;-71
2024/01/21 08:31:13;;;;;;;;;;;;;;;16.55;37.24;100141.44;10325466;28;794;-71
2024/01/21 08:36:08;;;;;;;;;;;;;;;16.55;37.44;100142.28;10326024;28;1971;-71
2024/01/21 08:41:04;;;;;;;;;;;;;;;16.52;37.28;100128.38;10325927;28;946;-71
2024/01/21 08:46:00;;;;;;;;;;;;;;;16.52;37.03;100121.34;10325161;28;838;-72
2024/01/21 08:50:57;;;;;;;;;;;;;;;16.48;37.07;100097.81;10325205;28;960;-72
2024/01/21 08:55:53;;;;;;;;;;;;;;;16.50;36.79;100069.69;10325590;28;1981;-71
2024/01/21 09:00:49;;;;;;;;;;;;;;;16.49;36.76;100070.59;10325582;28;854;-72
2024/01/21 09:05:45;;;;;;;;;;;;;;;16.48;36.76;100080.28;10324909;28;880;-73
2024/01/21 09:10:41;;;;;;;;;;;;;;;16.52;36.22;100112.59;10324825;28;786;-73
2024/01/21 09:15:36;;;;;;;;;;;;;;;16.47;36.82;100149.56;10324799;28;1959;-73
2024/01/21 09:20:32;;;;;;;;;;;;;;;16.48;36.60;100171.47;10324609;28;854;-72
2024/01/21 09:25:28;;;;;;;;;;;;;;;16.52;36.19;100207.31;10325390;28;1150;-73
2024/01/21 09:30:24;;;;;;;;;;;;;;;16.56;35.61;100196.66;10324401;28;799;-73
2024/01/21 09:35:20;;;;;;;;;;;;;;;16.55;35.89;100194.06;10324855;28;1987;-72
2024/01/21 09:40:17;;;;;;;;;;;;;;;16.57;35.66;100208.06;10324307;28;948;-72
2024/01/21 09:45:12;;;;;;;;;;;;;;;16.57;35.80;100214.16;10324670;28;841;-72
2024/01/21 09:50:08;;;;;;;;;;;;;;;16.60;35.77;100189.53;10321126;28;1180;-72
2024/01/21 09:55:04;;;;;;;;;;;;;;;16.61;35.34;100175.44;10323471;28;1963;-72
2024/01/21 10:00:00;;;;;;;;;;;;;;;16.59;35.88;100180.78;10327511;28;850;-72
2024/01/21 10:04:56;;;;;;;;;;;;;;;16.64;35.14;100178.00;10331373;28;846;-72
2024/01/21 10:09:52;;;;;;;;;;;;;;;16.68;35.19;100171.72;10330853;28;873;-72
2024/01/21 10:14:48;;;;;;;;;;;;;;;16.69;35.32;100181.34;10330237;28;1901;-72
2024/01/21 10:19:44;;;;;;;;;;;;;;;16.70;35.14;100187.47;10329777;28;1175;-72
2024/01/21 10:24:40;;;;;;;;;;;;;;;16.68;35.06;100174.34;10330553;28;849;-72
2024/01/21 10:29:35;;;;;;;;;;;;;;;16.69;34.87;100162.03;10329601;28;1398;-73
2024/01/21 10:34:31;;;;;;;;;;;;;;;16.65;35.44;100149.00;10328729;28;1910;-72
2024/01/21 10:39:27;;;;;;;;;;;;;;;16.69;35.31;100160.31;10329806;28;814;-72
2024/01/21 10:44:23;;;;;;;;;;;;;;;16.69;35.35;100159.41;10329603;28;871;-72
2024/01/21 10:49:19;;;;;;;;;;;;;;;16.70;35.14;100151.47;10328178;28;997;-72
2024/01/21 10:54:15;;;;;;;;;;;;;;;16.71;35.41;100144.44;10328731;28;1893;-72
2024/01/21 10:59:11;;;;;;;;;;;;;;;16.71;35.35;100162.88;10328434;28;778;-72
2024/01/21 11:04:11;;;;;;;;;;;;;;;16.77;34.79;100168.84;10328422;28;905;-73
2024/01/21 11:09:07;;;;;;;;;;;;;;;16.73;35.13;100177.69;10329056;28;875;-72
2024/01/21 11:14:03;;;;;;;;;;;;;;;16.73;35.06;100174.22;10328015;28;1973;-72
2024/01/21 11:18:59;;;;;;;;;;;;;;;16.78;34.83;100165.28;10327166;28;850;-72
2024/01/21 11:23:55;;;;;;;;;;;;;;;16.75;34.96;100160.09;10326923;28;901;-72
2024/01/21 11:28:51;;;;;;;;;;;;;;;16.84;34.52;100151.06;10327434;28;1235;-74
2024/01/21 11:33:47;;;;;;;;;;;;;;;16.72;35.37;100170.72;10326934;28;1910;-85
2024/01/21 11:38:43;;;;;;;;;;;;;;;16.62;35.16;100169.28;10327324;28;978;-77
2024/01/21 11:43:39;;;;;;;;;;;;;;;16.57;35.72;100169.44;10326687;28;865;-80
2024/01/21 11:48:35;;;;;;;;;;;;;;;16.56;35.52;100169.50;10327518;28;846;-77
2024/01/21 11:53:31;;;;;;;;;;;;;;;16.55;35.55;100165.13;10326627;28;1909;-77
2024/01/21 11:58:27;;;;;;;;;;;;;;;16.53;35.68;100159.94;10327160;28;996;-78
2024/01/21 12:03:23;;;;;;;;;;;;;;;16.51;35.71;100158.25;10326335;28;826;-77
2024/01/21 12:08:18;;;;;;;;;;;;;;;16.49;35.69;100137.25;10326253;28;818;-77
2024/01/21 12:13:14;;;;;;;;;;;;;;;16.50;35.68;100138.94;10325437;28;1894;-76
2024/01/21 12:18:10;;;;;;;;;;;;;;;16.49;35.33;100136.38;10327502;28;881;-77
2024/01/21 12:23:06;;;;;;;;;;;;;;;16.46;35.59;100128.59;10325780;28;929;-77
2024/01/21 12:28:02;;;;;;;;;;;;;;;16.48;35.55;100118.84;10325799;28;1236;-77
2024/01/21 12:32:58;;;;;;;;;;;;;;;16.46;35.44;100141.75;10325719;28;1914;-77
2024/01/21 12:37:54;;;;;;;;;;;;;;;16.44;35.59;100144.41;10325556;28;956;-80
2024/01/21 12:42:50;;;;;;;;;;;;;;;16.43;35.58;100121.66;10325783;28;767;-80
2024/01/21 12:47:46;;;;;;;;;;;;;;;16.41;35.60;100113.78;10325550;28;877;-77
2024/01/21 12:52:41;;;;;;;;;;;;;;;16.43;35.64;100103.25;10325479;28;1897;-83
2024/01/21 12:57:37;;;;;;;;;;;;;;;16.41;35.83;100115.56;10324352;28;984;-74
2024/01/21 13:02:33;;;;;;;;;;;;;;;16.38;35.88;100103.38;10324767;28;860;-77
2024/01/21 13:07:29;;;;;;;;;;;;;;;16.39;35.75;100112.13;10325236;28;874;-77
2024/01/21 13:12:25;;;;;;;;;;;;;;;16.38;35.94;100113.03;10325778;28;1960;-77
2024/01/21 13:17:21;;;;;;;;;;;;;;;16.36;35.89;100102.56;10324389;28;878;-77
2024/01/21 13:22:17;;;;;;;;;;;;;;;16.35;36.10;100100.00;10323787;28;981;-76
2024/01/21 13:27:26;;;;;;;;;;;;;;;16.37;35.97;100101.66;10324834;28;1339;-77
2024/01/21 13:32:23;;;;;;;;;;;;;;;16.50;35.79;100106.50;10325537;28;1905;-70
2024/01/21 13:37:19;;;;;;;;;;;;;;;16.53;35.95;100101.16;10331937;28;784;-69
2024/01/21 13:42:15;;;;;;;;;;;;;;;16.57;36.19;100100.16;10331570;28;854;-70
2024/01/21 13:47:11;;;;;;;;;;;;;;;16.56;35.71;100114.25;10332003;28;794;-70
2024/01/21 13:52:13;;;;;;;;;;;;;;;16.57;35.88;100118.56;10331650;28;1886;-72
2024/01/21 13:57:09;;;;;;;;;;;;;;;16.58;36.19;100093.97;10331154;28;899;-70
2024/01/21 14:02:07;;;;;;;;;;;;;;;16.61;36.28;100125.44;10331598;28;854;-69
2024/01/21 14:07:03;;;;;;;;;;;;;;;16.62;36.05;100140.34;10330700;28;787;-70
2024/01/21 14:11:59;;;;;;;;;;;;;;;16.68;35.76;100131.38;10331052;28;1893;-69
2024/01/21 14:16:55;;;;;;;;;;;;;;;16.68;36.18;100140.13;10330179;28;1005;-70
2024/01/21 14:21:50;;;;;;;;;;;;;;;16.83;36.13;100147.56;10330436;28;829;-69
2024/01/21 14:26:47;;;;;;;;;;;;;;;16.75;36.78;100153.97;10330043;28;1278;-70
2024/01/21 14:31:43;;;;;;;;;;;;;;;16.78;36.98;100167.06;10330520;28;1968;-69
2024/01/21 14:36:39;;;;;;;;;;;;;;;16.73;37.47;100159.28;10330979;28;773;-70
2024/01/21 14:41:35;;;;;;;;;;;;;;;16.75;37.44;100136.41;10329638;28;785;-69
2024/01/21 14:46:31;;;;;;;;;;;;;;;16.76;37.02;100119.69;10329927;28;779;-70
2024/01/21 14:51:27;;;;;;;;;;;;;;;16.78;36.74;100111.78;10330445;28;859;-71
2024/01/21 14:56:23;;;;;;;;;;;;;;;16.79;36.80;100105.59;10327882;28;1889;-69
2024/01/21 15:01:19;;;;;;;;;;;;;;;16.77;36.81;100074.06;10327590;28;1172;-69
2024/01/21 15:06:15;;;;;;;;;;;;;;;16.77;36.85;100074.06;10328351;28;896;-69
2024/01/21 15:11:11;;;;;;;;;;;;;;;16.71;36.63;100068.97;10328876;28;869;-70
2024/01/21 15:16:07;;;;;;;;;;;;;;;16.67;36.77;100085.78;10327308;28;1890;-70
2024/01/21 15:21:03;;;;;;;;;;;;;;;16.67;36.78;100085.78;10327828;28;860;-70
2024/01/21 15:26:01;;;;;;;;;;;;;;;16.66;36.83;100107.72;10327352;28;1187;-70
2024/01/21 15:30:57;;;;;;;;;;;;;;;16.67;36.93;100098.94;10328002;28;798;-70
2024/01/21 15:35:53;;;;;;;;;;;;;;;16.64;36.87;100114.84;10327019;28;1963;-70
2024/01/21 15:40:49;;;;;;;;;;;;;;;16.62;36.85;100087.72;10326649;28;901;-71
2024/01/21 15:45:45;;;;;;;;;;;;;;;16.61;36.87;100059.66;10327285;28;968;-70
2024/01/21 15:50:41;;;;;;;;;;;;;;;16.65;36.74;100059.50;10326649;28;843;-71
2024/01/21 15:55:38;;;;;;;;;;;;;;;16.65;36.96;100032.34;10324679;28;1894;-73
2024/01/21 16:00:34;;;;;;;;;;;;;;;16.66;36.62;100020.88;10326931;28;819;-72
2024/01/21 16:05:29;;;;;;;;;;;;;;;16.68;36.82;100023.47;10325877;28;882;-72
2024/01/21 16:10:25;;;;;;;;;;;;;;;16.68;36.90;100008.53;10327262;28;873;-72
2024/01/21 16:15:21;;;;;;;;;;;;;;;16.69;36.59;100023.44;10325687;28;1890;-71
2024/01/21 16:20:17;;;;;;;;;;;;;;;16.68;36.89;100026.97;10325833;28;783;-72
2024/01/21 16:25:13;;;;;;;;;;;;;;;16.69;36.84;100039.22;10325207;28;1264;-71
2024/01/21 16:30:09;;;;;;;;;;;;;;;16.70;36.74;100046.19;10326211;28;966;-72
2024/01/21 16:35:05;;;;;;;;;;;;;;;16.74;36.70;100028.50;10325568;28;1909;-73
2024/01/21 16:40:01;;;;;;;;;;;;;;;16.69;37.06;100033.97;10325470;28;847;-72
2024/01/21 16:44:59;;;;;;;;;;;;;;;16.70;37.08;100027.78;10326153;28;875;-72
2024/01/21 16:49:55;;;;;;;;;;;;;;;16.73;37.05;100018.91;10325812;28;946;-72
2024/01/21 16:54:51;;;;;;;;;;;;;;;16.73;37.08;99977.66;10325046;28;1960;-72
2024/01/21 16:59:47;;;;;;;;;;;;;;;16.76;37.11;99987.22;10325128;28;881;-72
2024/01/21 17:04:42;;;;;;;;;;;;;;;16.73;36.95;99988.19;10325613;28;955;-72
2024/01/21 17:09:38;;;;;;;;;;;;;;;16.75;36.80;99996.88;10330308;28;919;-72
2024/01/21 17:14:34;;;;;;;;;;;;;;;16.76;36.85;99982.81;10332984;28;1902;-72
2024/01/21 17:19:30;;;;;;;;;;;;;;;16.76;37.02;100003.84;10332890;28;814;-72
2024/01/21 17:24:26;;;;;;;;;;;;;;;16.76;36.85;99995.97;10332696;28;778;-72
2024/01/21 17:29:22;;;;;;;;;;;;;;;16.77;37.03;100008.25;10332346;28;1302;-72
2024/01/21 17:34:19;;;;;;;;;;;;;;;16.77;37.13;100003.00;10332230;28;1965;-72
2024/01/21 17:39:15;;;;;;;;;;;;;;;16.80;36.95;99988.88;10331953;28;982;-72
2024/01/21 17:44:11;;;;;;;;;;;;;;;16.80;37.13;100002.88;10332577;28;942;-71
2024/01/21 17:49:06;;;;;;;;;;;;;;;16.82;36.97;99987.91;10332254;28;834;-72
2024/01/21 17:54:02;;;;;;;;;;;;;;;16.83;36.90;99992.25;10331391;28;1890;-72
2024/01/21 17:58:58;;;;;;;;;;;;;;;16.84;37.03;99996.59;10331392;28;921;-72
2024/01/21 18:03:54;;;;;;;;;;;;;;;16.83;37.13;100012.44;10331683;28;894;-72
2024/01/21 18:08:52;;;;;;;;;;;;;;;16.84;37.10;100015.00;10330841;28;908;-72
2024/01/21 18:13:48;;;;;;;;;;;;;;;16.84;36.90;100032.59;10331416;28;1893;-72
2024/01/21 18:18:44;;;;;;;;;;;;;;;16.85;36.85;100035.19;10330113;28;862;-72
2024/01/21 18:23:40;;;;;;;;;;;;;;;16.87;37.00;100029.84;10330432;28;866;-72
2024/01/21 18:28:36;;;;;;;;;;;;;;;16.86;36.85;100009.69;10331209;28;1195;-72
2024/01/21 18:33:32;;;;;;;;;;;;;;;16.89;36.73;100014.84;10330067;28;1969;-72
2024/01/21 18:38:28;;;;;;;;;;;;;;;16.89;36.89;100014.00;10329796;28;962;-72
2024/01/21 18:43:24;;;;;;;;;;;;;;;16.88;36.88;99997.34;10330255;28;968;-72
2024/01/21 18:48:20;;;;;;;;;;;;;;;16.86;36.78;99981.59;10329440;28;881;-72
2024/01/21 18:53:16;;;;;;;;;;;;;;;16.86;36.81;99991.28;10328613;28;1969;-72
2024/01/21 18:58:11;;;;;;;;;;;;;;;16.86;36.70;99960.53;10328578;28;930;-72
2024/01/21 19:03:07;;;;;;;;;;;;;;;16.90;36.71;99958.66;10311844;28;827;-71
2024/01/21 19:08:03;;;;;;;;;;;;;;;16.88;36.77;99971.03;10329371;28;806;-71
2024/01/21 19:12:59;;;;;;;;;;;;;;;16.85;36.91;99956.19;10327827;28;1893;-71
2024/01/21 19:17:55;;;;;;;;;;;;;;;16.90;36.79;99916.53;10328312;28;810;-72
2024/01/21 19:22:51;;;;;;;;;;;;;;;16.89;36.95;99903.41;10328085;28;874;-71
2024/01/21 19:27:47;;;;;;;;;;;;;;;16.89;36.95;99867.41;10327384;28;1092;-72
2024/01/21 19:32:43;;;;;;;;;;;;;;;16.92;36.82;99862.03;10327394;28;1971;-71
2024/01/21 19:37:40;;;;;;;;;;;;;;;16.91;36.76;99864.75;10327409;28;1116;-71
2024/01/21 19:42:36;;;;;;;;;;;;;;;16.92;36.79;99846.22;10327586;28;845;-71
2024/01/21 19:47:32;;;;;;;;;;;;;;;16.91;36.87;99812.09;10327693;28;873;-72
2024/01/21 19:52:28;;;;;;;;;;;;;;;16.93;36.79;99815.53;10327595;28;1969;-71
2024/01/21 19:57:24;;;;;;;;;;;;;;;16.94;36.88;99798.78;10326716;28;933;-72
2024/01/21 20:02:20;;;;;;;;;;;;;;;16.94;36.80;99801.44;10326481;28;850;-72
2024/01/21 20:07:19;;;;;;;;;;;;;;;16.94;36.86;99794.38;10326359;28;754;-72
2024/01/21 20:12:15;;;;;;;;;;;;;;;16.94;36.92;99785.63;10326141;28;1898;-72
2024/01/21 20:17:10;;;;;;;;;;;;;;;16.94;36.87;99793.53;10326016;28;862;-71
2024/01/21 20:22:06;;;;;;;;;;;;;;;16.95;36.83;99785.59;10326549;28;842;-72
2024/01/21 20:27:02;;;;;;;;;;;;;;;16.94;36.79;99780.38;10325480;28;1430;-71
2024/01/21 20:31:58;;;;;;;;;;;;;;;16.95;36.78;99777.69;10326226;28;1930;-71
2024/01/21 20:36:54;;;;;;;;;;;;;;;16.95;36.85;99774.16;10324965;28;838;-71
2024/01/21 20:41:50;;;;;;;;;;;;;;;16.92;36.73;99756.72;10324906;28;819;-71
2024/01/21 20:46:46;;;;;;;;;;;;;;;16.94;36.59;99748.78;10325385;28;876;-71
2024/01/21 20:51:42;;;;;;;;;;;;;;;16.94;36.57;99732.97;10325930;28;837;-72
2024/01/21 20:56:38;;;;;;;;;;;;;;;16.91;36.52;99741.84;10325213;28;1962;-71
2024/01/21 21:01:34;;;;;;;;;;;;;;;16.90;36.62;99724.34;10325267;28;901;-72
2024/01/21 21:06:30;;;;;;;;;;;;;;;16.91;36.60;99693.59;10324952;28;993;-72
2024/01/21 21:11:25;;;;;;;;;;;;;;;16.86;36.50;99702.53;10325748;28;924;-72
2024/01/21 21:16:21;;;;;;;;;;;;;;;16.88;36.75;99691.09;10325446;28;1981;-72
2024/01/21 21:21:17;;;;;;;;;;;;;;;16.86;36.50;99689.38;10325339;28;822;-71
2024/01/21 21:26:13;;;;;;;;;;;;;;;16.86;36.82;99678.00;10324543;28;1274;-72
2024/01/21 21:31:09;;;;;;;;;;;;;;;16.84;36.64;99654.34;10324774;28;802;-72
2024/01/21 21:36:05;;;;;;;;;;;;;;;16.84;36.76;99638.56;10324277;28;1983;-72
2024/01/21 21:41:01;;;;;;;;;;;;;;;16.84;36.59;99632.44;10325176;28;925;-72
2024/01/21 21:45:57;;;;;;;;;;;;;;;16.84;36.64;99637.69;10324261;28;766;-72
2024/01/21 21:50:52;;;;;;;;;;;;;;;16.81;36.59;99636.06;10324753;28;818;-72
2024/01/21 21:55:48;;;;;;;;;;;;;;;16.82;36.69;99610.56;10329035;28;1960;-71
2024/01/21 22:00:44;;;;;;;;;;;;;;;16.80;36.53;99583.50;10331641;28;817;-72
2024/01/21 22:05:40;;;;;;;;;;;;;;;16.82;36.61;99577.25;10330514;28;769;-72
2024/01/21 22:10:36;;;;;;;;;;;;;;;16.76;36.83;99589.75;10330825;28;870;-72
2024/01/21 22:15:34;;;;;;;;;;;;;;;16.75;36.51;99599.44;10330602;28;1906;-72
2024/01/21 22:20:30;;;;;;;;;;;;;;;16.72;36.60;99602.19;10330555;28;867;-72
2024/01/21 22:25:25;;;;;;;;;;;;;;;16.69;36.88;99564.59;10331422;28;1317;-72
2024/01/21 22:30:21;;;;;;;;;;;;;;;16.68;36.90;99570.81;10330068;28;867;-72
2024/01/21 22:35:17;;;;;;;;;;;;;;;16.65;36.87;99580.53;10330531;28;1921;-72
2024/01/21 22:40:13;;;;;;;;;;;;;;;16.65;36.70;99579.69;10330048;28;869;-71
2024/01/21 22:45:09;;;;;;;;;;;;;;;16.66;36.86;99570.84;10329146;28;893;-71
2024/01/21 22:50:05;;;;;;;;;;;;;;;16.63;36.92;99544.66;10330148;28;1015;-71
2024/01/21 22:55:01;;;;;;;;;;;;;;;16.64;36.66;99531.47;10329242;28;1961;-71
2024/01/21 22:59:57;;;;;;;;;;;;;;;16.66;36.98;99534.00;10329725;28;921;-71
2024/01/21 23:04:52;;;;;;;;;;;;;;;16.61;36.85;99525.44;10328270;28;1095;-72
2024/01/21 23:09:49;;;;;;;;;;;;;;;16.61;36.96;99484.22;10311982;28;885;-72
2024/01/21 23:14:45;;;;;;;;;;;;;;;16.63;37.07;99478.88;10329022;28;1901;-71
2024/01/21 23:19:41;;;;;;;;;;;;;;;16.64;36.86;99459.56;10328270;28;872;-71
2024/01/21 23:24:36;;;;;;;;;;;;;;;16.59;37.04;99428.19;10327421;28;1364;-71
2024/01/21 23:29:32;;;;;;;;;;;;;;;16.59;36.88;99408.91;10327726;28;1299;-71
2024/01/21 23:34:28;;;;;;;;;;;;;;;16.60;37.04;99390.41;10327459;28;1917;-72
2024/01/21 23:39:24;;;;;;;;;;;;;;;16.57;36.98;99384.44;10328645;28;969;-72
2024/01/21 23:44:20;;;;;;;;;;;;;;;16.57;36.89;99368.66;10327306;28;913;-71
2024/01/21 23:49:16;;;;;;;;;;;;;;;16.61;36.88;99376.34;10327375;28;862;-72
2024/01/21 23:54:12;;;;;;;;;;;;;;;16.56;37.18;99359.06;10326819;28;1969;-71
2024/01/21 23:59:08;;;;;;;;;;;;;;;16.54;37.26;99364.38;10326980;28;996;-71
